Home > Products > Valid Products > TAF

000
FTUS46 KLOX 042038 AAA
TAFLAX
TAF AMD
KLAX 042038Z 0421/0524 26012KT P6SM SCT040
     FM050300 25009KT P6SM SCT025
     FM050500 VRB03KT P6SM OVC025
     FM051600 VRB03KT P6SM BKN030
     FM051900 25010KT P6SM SCT035=



000
FTUS46 KLOX 041912 AAA
TAFSMX
TAF AMD
KSMX 041912Z 0419/0518 30007KT P6SM BKN030
     FM041930 30007KT P6SM SCT025
     FM042100 30015KT P6SM SKC
     FM050300 30008KT P6SM SKC
     FM050700 VRB03KT P6SM BKN015
     FM051100 VRB03KT P6SM OVC006=



000
FTUS46 KLOX 041735
TAFSMX
TAF
KSMX 041735Z 0418/0518 30007KT P6SM BKN023
     FM041930 30007KT P6SM SCT025
     FM042100 30015KT P6SM SKC
     FM050300 30008KT P6SM SKC
     FM050700 VRB03KT P6SM BKN015
     FM051100 VRB03KT P6SM OVC006=



000
FTUS46 KLOX 041735
TAFPRB
TAF
KPRB 041735Z 0418/0518 30006KT P6SM SKC
     FM042200 23015G20KT P6SM SKC
     FM050300 29010KT P6SM SKC
     FM050700 33004KT P6SM SKC=



000
FTUS46 KLOX 041735
TAFSBP
TAF
KSBP 041735Z 0418/0518 12008KT P6SM OVC022
     FM041900 29008KT P6SM SKC
     FM042200 30015G23KT P6SM SKC
     FM050300 30008KT P6SM SKC
     FM050900 VRB03KT P6SM BKN015
     FM051100 VRB03KT P6SM OVC008=



000
FTUS46 KLOX 041735
TAFPMD
TAF
KPMD 041735Z 0418/0518 24008KT P6SM SKC
     FM041900 23015KT P6SM SKC
     FM042200 24018G25KT P6SM SKC
     FM050300 24012KT P6SM SKC
     FM051100 23007KT P6SM SKC=



000
FTUS46 KLOX 041735
TAFLAX
TAF
KLAX 041735Z 0418/0524 10005KT P6SM FEW025 BKN040
     FM042000 25012KT P6SM FEW035
     FM050300 25009KT P6SM SCT025
     FM050500 VRB03KT P6SM OVC025
     FM051600 VRB03KT P6SM BKN030
     FM051900 25010KT P6SM SCT035=



000
FTUS46 KLOX 041735
TAFSBA
TAF
KSBA 041735Z 0418/0518 16006KT P6SM SCT023 SCT040
      TEMPO 0418/0420 BKN040
     FM042100 25009KT P6SM SCT040
     FM050300 VRB03KT P6SM SKC
     FM050900 VRB03KT P6SM SCT025
     FM051200 VRB03KT P6SM OVC020=



000
FTUS46 KLOX 041735
TAFBUR
TAF
KBUR 041735Z 0418/0518 VRB03KT P6SM OVC035
     FM042000 18008KT P6SM SCT040
     FM050400 15006KT P6SM SKC
     FM050800 15005KT P6SM OVC025=



000
FTUS46 KLOX 041735
TAFWJF
TAF
KWJF 041735Z 0418/0518 24015KT P6SM SKC
     FM042200 24018G25KT P6SM SKC
     FM050300 24012KT P6SM SKC
     FM051100 24007KT P6SM SKC=



000
FTUS46 KLOX 041735
TAFSBA
TAF
KSBA 041735Z 0418/0518 16006KT P6SM SCT023 SCT040
      TEMPO 0418/0420 BKN040
     FM042100 25009KT P6SM SCT040
     FM050300 VRB03KT P6SM SKC
     FM050900 VRB03KT P6SM SCT025
     FM051200 VRB03KT P6SM OVC020=



000
FTUS46 KLOX 041735
TAFVNY
TAF
KVNY 041735Z 0418/0518 17008KT P6SM OVC035
     FM042000 15008KT P6SM SCT035
     FM050300 VRB03KT P6SM SKC
     FM050900 VRB03KT P6SM OVC025=



000
FTUS46 KLOX 041735
TAFLGB
TAF
KLGB 041735Z 0418/0518 19007KT P6SM BKN040
     FM042000 22008KT P6SM SCT035
     FM050000 29008KT P6SM SKC
     FM050400 VRB03KT P6SM SKC
     FM050700 VRB03KT P6SM OVC025=



000
FTUS46 KLOX 041735
TAFSMX
TAF
KSMX 041735Z 0418/0518 30007KT P6SM BKN023
     FM041930 30007KT P6SM SCT025
     FM042100 30015KT P6SM SKC
     FM050300 30008KT P6SM SKC
     FM050700 VRB03KT P6SM BKN015
     FM051100 VRB03KT P6SM OVC006=



000
FTUS46 KLOX 041735
TAFPRB
TAF
KPRB 041735Z 0418/0518 30006KT P6SM SKC
     FM042200 23015G20KT P6SM SKC
     FM050300 29010KT P6SM SKC
     FM050700 33004KT P6SM SKC=



000
FTUS46 KLOX 041735
TAFSBP
TAF
KSBP 041735Z 0418/0518 12008KT P6SM OVC022
     FM041900 29008KT P6SM SKC
     FM042200 30015G23KT P6SM SKC
     FM050300 30008KT P6SM SKC
     FM050900 VRB03KT P6SM BKN015
     FM051100 VRB03KT P6SM OVC008=



000
FTUS46 KLOX 041735
TAFLAX
TAF
KLAX 041735Z 0418/0524 10005KT P6SM FEW025 BKN040
     FM042000 25012KT P6SM FEW035
     FM050300 25009KT P6SM SCT025
     FM050500 VRB03KT P6SM OVC025
     FM051600 VRB03KT P6SM BKN030
     FM051900 25010KT P6SM SCT035=



000
FTUS46 KLOX 041735
TAFVNY
TAF
KVNY 041735Z 0418/0518 17008KT P6SM OVC035
     FM042000 15008KT P6SM SCT035
     FM050300 VRB03KT P6SM SKC
     FM050900 VRB03KT P6SM OVC025=



000
FTUS46 KLOX 041735
TAFBUR
TAF
KBUR 041735Z 0418/0518 VRB03KT P6SM OVC035
     FM042000 18008KT P6SM SCT040
     FM050400 15006KT P6SM SKC
     FM050800 15005KT P6SM OVC025=



000
FTUS46 KLOX 041735
TAFPMD
TAF
KPMD 041735Z 0418/0518 24008KT P6SM SKC
     FM041900 23015KT P6SM SKC
     FM042200 24018G25KT P6SM SKC
     FM050300 24012KT P6SM SKC
     FM051100 23007KT P6SM SKC=



000
FTUS46 KLOX 041735
TAFLGB
TAF
KLGB 041735Z 0418/0518 19007KT P6SM BKN040
     FM042000 22008KT P6SM SCT035
     FM050000 29008KT P6SM SKC
     FM050400 VRB03KT P6SM SKC
     FM050700 VRB03KT P6SM OVC025=



000
FTUS46 KLOX 041735
TAFWJF
TAF
KWJF 041735Z 0418/0518 24015KT P6SM SKC
     FM042200 24018G25KT P6SM SKC
     FM050300 24012KT P6SM SKC
     FM051100 24007KT P6SM SKC=



000
FTUS46 KLOX 041650 AAA
TAFSBP
TAF AMD
KSBP 041650Z 0417/0512 12008KT P6SM OVC022
     FM041900 29008KT P6SM SKC
     FM042200 30015G23KT P6SM SKC
     FM050300 30008KT P6SM SKC
     FM050900 VRB03KT P6SM BKN015=



000
FTUS46 KLOX 041543 AAB
TAFSBA
TAF AMD
KSBA 041543Z 0416/0512 04004KT P6SM SCT023 BKN040
     FM041800 16006KT P6SM SCT040
     FM042100 25009KT P6SM SKC
     FM050300 VRB03KT P6SM SKC
     FM050900 VRB03KT P6SM BKN025=



000
FTUS46 KLOX 041540 AAB
TAFVNY
TAF AMD
KVNY 041540Z 0416/0512 16008KT P6SM OVC030
     FM041800 15006KT P6SM BKN035
     FM042000 15008KT P6SM SCT035
     FM050300 VRB03KT P6SM SKC
     FM050900 VRB03KT P6SM BKN025=



000
FTUS46 KLOX 041435 AAB
TAFLAX
TAF AMD
KLAX 041435Z 0415/0518 10005KT P6SM FEW025 OVC035
     FM041900 25012KT P6SM FEW035
     FM050300 25009KT P6SM SCT025
     FM050500 VRB03KT P6SM OVC025
     FM051600 VRB03KT P6SM BKN035=



000
FTUS46 KLOX 041435 AAB
TAFLAX
TAF AMD
KLAX 041435Z 0415/0518 10005KT P6SM FEW025 OVC035
     FM041900 25012KT P6SM FEW035
     FM050300 25009KT P6SM SCT025
     FM050500 VRB03KT P6SM OVC025
     FM051600 VRB03KT P6SM BKN035=



000
FTUS46 KLOX 041428 AAA
TAFPRB
TAF AMD
KPRB 041428Z 0414/0512 00000KT P6SM SKC
     FM041700 30006KT P6SM SKC
     FM042200 23015G20KT P6SM SKC
     FM050300 29010KT P6SM SKC=



000
FTUS46 KLOX 041428 AAA
TAFPRB
TAF AMD
KPRB 041428Z 0414/0512 00000KT P6SM SKC
     FM041700 30006KT P6SM SKC
     FM042200 23015G20KT P6SM SKC
     FM050300 29010KT P6SM SKC=



000
FTUS46 KLOX 041313 AAA
TAFVNY
TAF AMD
KVNY 041313Z 0413/0512 14006KT P6SM OVC035
     FM041800 15008KT P6SM SKC
     FM050300 VRB03KT P6SM SKC
     FM050900 VRB03KT P6SM BKN025=



000
FTUS46 KLOX 041313 AAA
TAFBUR
TAF AMD
KBUR 041313Z 0413/0512 VRB03KT P6SM OVC035
     FM041800 16007KT P6SM SKC
     FM050400 VRB03KT P6SM SKC
     FM050800 VRB03KT P6SM BKN025=



000
FTUS46 KLOX 041313 AAA
TAFVNY
TAF AMD
KVNY 041313Z 0413/0512 14006KT P6SM OVC035
     FM041800 15008KT P6SM SKC
     FM050300 VRB03KT P6SM SKC
     FM050900 VRB03KT P6SM BKN025=



000
FTUS46 KLOX 041313 AAA
TAFBUR
TAF AMD
KBUR 041313Z 0413/0512 VRB03KT P6SM OVC035
     FM041800 16007KT P6SM SKC
     FM050400 VRB03KT P6SM SKC
     FM050800 VRB03KT P6SM BKN025=



000
FTUS46 KLOX 041312 AAA
TAFSBA
TAF AMD
KSBA 041312Z 0413/0512 VRB03KT P6SM SCT030
     FM041400 VRB03KT P6SM BKN030
     FM041800 16006KT P6SM SCT030
     FM042100 25009KT P6SM SKC
     FM050300 VRB03KT P6SM SKC
     FM050900 VRB03KT P6SM BKN025=



000
FTUS46 KLOX 041312 AAA
TAFSBA
TAF AMD
KSBA 041312Z 0413/0512 VRB03KT P6SM SCT030
     FM041400 VRB03KT P6SM BKN030
     FM041800 16006KT P6SM SCT030
     FM042100 25009KT P6SM SKC
     FM050300 VRB03KT P6SM SKC
     FM050900 VRB03KT P6SM BKN025=



000
FTUS46 KLOX 041311 AAA
TAFLAX
TAF AMD
KLAX 041311Z 0413/0518 11008KT P6SM OVC030
     FM041600 22006KT P6SM BKN035
     FM041800 25012KT P6SM FEW035
     FM050300 25009KT P6SM BKN025
     FM050900 VRB03KT P6SM OVC025
     FM051600 VRB03KT P6SM BKN035=



000
FTUS46 KLOX 041311 AAA
TAFSMX
TAF AMD
KSMX 041311Z 0413/0512 30007KT P6SM BKN021
     FM041800 28006KT P6SM SCT025
     FM042100 30015KT P6SM SKC
     FM050300 30008KT P6SM SKC
     FM050700 VRB03KT P6SM BKN015=



000
FTUS46 KLOX 041135
TAFSMX
TAF
KSMX 041135Z 0412/0512 30007KT P6SM BKN015
     FM041800 28006KT P6SM SCT020
     FM042100 30015KT P6SM SKC
     FM050300 30008KT P6SM SKC
     FM050700 VRB03KT P6SM BKN015=



000
FTUS46 KLOX 041135
TAFBUR
TAF
KBUR 041135Z 0412/0512 VRB03KT P6SM OVC025
     FM041800 16007KT P6SM SKC
     FM050400 VRB03KT P6SM SKC
     FM050800 VRB03KT P6SM BKN025=



000
FTUS46 KLOX 041135
TAFLGB
TAF
KLGB 041135Z 0412/0512 VRB03KT P6SM OVC035
     FM041800 17008KT P6SM SCT035
     FM050000 29008KT P6SM SKC
     FM050400 VRB03KT P6SM SKC
     FM050700 VRB03KT P6SM OVC025
      AMD NOT SKED=



000
FTUS46 KLOX 041135
TAFLAX
TAF
KLAX 041135Z 0412/0518 26006KT P6SM OVC030
     FM041700 25006KT P6SM BKN035
     FM041800 25012KT P6SM FEW035
     FM050300 25009KT P6SM BKN025
     FM050900 VRB03KT P6SM OVC025
     FM051600 VRB03KT P6SM BKN035=



000
FTUS46 KLOX 041135
TAFSBA
TAF
KSBA 041135Z 0412/0512 VRB03KT P6SM SCT030
     FM041300 VRB03KT P6SM BKN030
     FM041700 16006KT P6SM SCT030
     FM042100 25009KT P6SM SKC
     FM050300 VRB03KT P6SM SKC
     FM050900 VRB03KT P6SM BKN025=



000
FTUS46 KLOX 041135
TAFPRB
TAF
KPRB 041135Z 0412/0512 VRB03KT P6SM SKC
     FM041400 VRB05KT P6SM BKN005
     FM041700 30006KT P6SM SKC
     FM042200 23015G20KT P6SM SKC
     FM050300 29010KT P6SM SKC=



000
FTUS46 KLOX 041135
TAFSBP
TAF
KSBP 041135Z 0412/0512 VRB03KT P6SM OVC015
     FM041800 29008KT P6SM SKC
     FM042200 30015G23KT P6SM SKC
     FM050300 30008KT P6SM SKC
     FM050900 VRB03KT P6SM BKN015=



000
FTUS46 KLOX 041135
TAFVNY
TAF
KVNY 041135Z 0412/0512 14006KT P6SM OVC025
     FM041800 15008KT P6SM SKC
     FM050300 VRB03KT P6SM SKC
     FM050900 VRB03KT P6SM BKN025=



000
FTUS46 KLOX 041135
TAFPMD
TAF
KPMD 041135Z 0412/0512 23007KT P6SM SKC
     FM041800 23015KT P6SM SKC
     FM042200 24018G25KT P6SM SKC
     FM050300 24012KT P6SM SKC=



000
FTUS46 KLOX 041135
TAFPRB
TAF
KPRB 041135Z 0412/0512 VRB03KT P6SM SKC
     FM041400 VRB05KT P6SM BKN005
     FM041700 30006KT P6SM SKC
     FM042200 23015G20KT P6SM SKC
     FM050300 29010KT P6SM SKC=



000
FTUS46 KLOX 041135
TAFLGB
TAF
KLGB 041135Z 0412/0512 VRB03KT P6SM OVC035
     FM041800 17008KT P6SM SCT035
     FM050000 29008KT P6SM SKC
     FM050400 VRB03KT P6SM SKC
     FM050700 VRB03KT P6SM OVC025
      AMD NOT SKED=



000
FTUS46 KLOX 041135
TAFSMX
TAF
KSMX 041135Z 0412/0512 30007KT P6SM BKN015
     FM041800 28006KT P6SM SCT020
     FM042100 30015KT P6SM SKC
     FM050300 30008KT P6SM SKC
     FM050700 VRB03KT P6SM BKN015=



000
FTUS46 KLOX 041135
TAFWJF
TAF
KWJF 041135Z 0412/0512 24007KT P6SM SKC
     FM041800 23015KT P6SM SKC
     FM042200 24018G25KT P6SM SKC
     FM050300 24012KT P6SM SKC=



000
FTUS46 KLOX 041135
TAFBUR
TAF
KBUR 041135Z 0412/0512 VRB03KT P6SM OVC025
     FM041800 16007KT P6SM SKC
     FM050400 VRB03KT P6SM SKC
     FM050800 VRB03KT P6SM BKN025=



000
FTUS46 KLOX 041135
TAFLAX
TAF
KLAX 041135Z 0412/0518 26006KT P6SM OVC030
     FM041700 25006KT P6SM BKN035
     FM041800 25012KT P6SM FEW035
     FM050300 25009KT P6SM BKN025
     FM050900 VRB03KT P6SM OVC025
     FM051600 VRB03KT P6SM BKN035=



000
FTUS46 KLOX 041135
TAFSBP
TAF
KSBP 041135Z 0412/0512 VRB03KT P6SM OVC015
     FM041800 29008KT P6SM SKC
     FM042200 30015G23KT P6SM SKC
     FM050300 30008KT P6SM SKC
     FM050900 VRB03KT P6SM BKN015=



000
FTUS46 KLOX 041135
TAFSBA
TAF
KSBA 041135Z 0412/0512 VRB03KT P6SM SCT030
     FM041300 VRB03KT P6SM BKN030
     FM041700 16006KT P6SM SCT030
     FM042100 25009KT P6SM SKC
     FM050300 VRB03KT P6SM SKC
     FM050900 VRB03KT P6SM BKN025=



000
FTUS46 KLOX 041135
TAFWJF
TAF
KWJF 041135Z 0412/0512 24007KT P6SM SKC
     FM041800 23015KT P6SM SKC
     FM042200 24018G25KT P6SM SKC
     FM050300 24012KT P6SM SKC=



000
FTUS46 KLOX 041135
TAFPMD
TAF
KPMD 041135Z 0412/0512 23007KT P6SM SKC
     FM041800 23015KT P6SM SKC
     FM042200 24018G25KT P6SM SKC
     FM050300 24012KT P6SM SKC=



000
FTUS46 KLOX 041135
TAFVNY
TAF
KVNY 041135Z 0412/0512 14006KT P6SM OVC025
     FM041800 15008KT P6SM SKC
     FM050300 VRB03KT P6SM SKC
     FM050900 VRB03KT P6SM BKN025=



000
FTUS46 KLOX 040945 AAA
TAFLAX
TAF AMD
KLAX 040945Z 0410/0512 26006KT P6SM OVC030
     FM041700 25006KT P6SM BKN035
     FM042000 25012KT P6SM SCT035
     FM050300 25009KT P6SM BKN025
     FM050900 VRB03KT P6SM OVC020=



000
FTUS46 KLOX 040806 AAA
TAFVNY
TAF AMD
KVNY 040806Z 0408/0506 14006KT P6SM OVC022
     FM041900 15008KT P6SM SKC
     FM050300 VRB03KT P6SM SKC=



000
FTUS46 KLOX 040806 AAA
TAFBUR
TAF AMD
KBUR 040806Z 0408/0506 VRB03KT P6SM OVC022
     FM041800 16007KT P6SM SKC
     FM042100 18009KT P6SM SKC
     FM050500 VRB03KT P6SM SKC=



000
FTUS46 KLOX 040647 AAA
TAFSMX
TAF AMD
KSMX 040647Z 0407/0506 30007KT P6SM BKN015
     FM041800 28006KT P6SM SCT015
     FM042100 30015KT P6SM SKC
     FM050300 30008KT P6SM SKC=



000
FTUS46 KLOX 040529
TAFLGB
TAF
KLGB 040529Z 0406/0506 VRB03KT P6SM OVC020
     FM041900 17008KT P6SM SCT030
     FM050000 29008KT P6SM SKC
     FM050400 VRB03KT P6SM SKC
      AMD NOT SKED=



000
FTUS46 KLOX 040529
TAFSBP
TAF
KSBP 040529Z 0406/0506 32006KT P6SM SCT015
     FM040800 VRB03KT P6SM OVC015
     FM041800 29008KT P6SM SKC
     FM042200 30015G23KT P6SM SKC
     FM050300 30008KT P6SM SKC=



000
FTUS46 KLOX 040529
TAFPRB
TAF
KPRB 040529Z 0406/0506 30007KT P6SM SKC
     FM040900 VRB03KT P6SM SKC
     FM041400 VRB05KT P6SM BKN005
     FM041700 30006KT P6SM SKC
     FM042200 23015G20KT P6SM SKC
     FM050300 29010KT P6SM SKC=



000
FTUS46 KLOX 040529
TAFLAX
TAF
KLAX 040529Z 0406/0512 26006KT P6SM SCT025
     FM040800 VRB03KT P6SM OVC020
     FM041700 25006KT P6SM BKN030
     FM042000 25012KT P6SM SCT035
     FM050300 25009KT P6SM BKN025
     FM050900 VRB03KT P6SM OVC020=



000
FTUS46 KLOX 040529
TAFSMX
TAF
KSMX 040529Z 0406/0506 30007KT P6SM SKC
     FM040900 VRB03KT P6SM BKN010
     FM041800 28006KT P6SM SCT015
     FM042100 30015KT P6SM SKC
     FM050300 30008KT P6SM SKC=



000
FTUS46 KLOX 040529
TAFSBA
TAF
KSBA 040529Z 0406/0506 VRB03KT P6SM SKC
     FM041200 VRB03KT P6SM OVC015
     FM041700 16006KT P6SM SCT020
     FM042100 25009KT P6SM SKC
     FM050300 VRB03KT P6SM SKC=



000
FTUS46 KLOX 040529
TAFVNY
TAF
KVNY 040529Z 0406/0506 14006KT P6SM SKC
     FM040700 VRB03KT P6SM BKN015
     FM041000 VRB03KT P6SM OVC020
     FM041900 15008KT P6SM SKC
     FM050300 VRB03KT P6SM SKC=



000
FTUS46 KLOX 040529
TAFPMD
TAF
KPMD 040529Z 0406/0506 24015KT P6SM SKC
     FM041000 23007KT P6SM SKC
     FM041800 23015KT P6SM SKC
     FM042200 24018G25KT P6SM SKC
     FM050300 24012KT P6SM SKC=



000
FTUS46 KLOX 040529
TAFBUR
TAF
KBUR 040529Z 0406/0506 VRB03KT P6SM OVC015
     FM041600 15004KT P6SM OVC025
     FM041800 16007KT P6SM SKC
     FM042100 18009KT P6SM SKC
     FM050500 VRB03KT P6SM SKC=



000
FTUS46 KLOX 040529
TAFWJF
TAF
KWJF 040529Z 0406/0506 24015KT P6SM SKC
     FM041000 23007KT P6SM SKC
     FM041800 23015KT P6SM SKC
     FM042200 24018G25KT P6SM SKC
     FM050300 24012KT P6SM SKC=



000
FTUS46 KLOX 040431 AAA
TAFSBP
TAF AMD
KSBP 040431Z 0405/0424 31008KT P6SM BKN015
     FM040600 VRB03KT P6SM OVC012
     FM041000 VRB03KT P6SM OVC008
     FM041800 25004KT P6SM SKC
     FM042000 29012KT P6SM SKC
     FM042200 30017G23KT P6SM SKC=



000
FTUS46 KLOX 040431 AAA
TAFSBP
TAF AMD
KSBP 040431Z 0405/0424 31008KT P6SM BKN015
     FM040600 VRB03KT P6SM OVC012
     FM041000 VRB03KT P6SM OVC008
     FM041800 25004KT P6SM SKC
     FM042000 29012KT P6SM SKC
     FM042200 30017G23KT P6SM SKC=



000
FTUS46 KLOX 032340
TAFPMD
TAF
KPMD 032340Z 0400/0424 25017G23KT P6SM SKC
     FM040400 24015KT P6SM SKC
     FM041000 23007KT P6SM SKC
     FM041800 23011KT P6SM SKC
     FM042000 23015G20KT P6SM SKC
     FM042200 24018G25KT P6SM SKC=



000
FTUS46 KLOX 032340
TAFPRB
TAF
KPRB 032340Z 0400/0424 22012KT P6SM SKC
     FM040500 30007KT P6SM SKC
     FM040900 VRB03KT P6SM SKC
     FM041400 VRB05KT P6SM BKN005
     FM041700 30005KT P6SM SKC
     FM042100 27011KT P6SM SKC
     FM042300 23015G20KT P6SM SKC=



000
FTUS46 KLOX 032340
TAFBUR
TAF
KBUR 032340Z 0400/0424 18008KT P6SM SKC
     FM040300 16005KT P6SM SKC
     FM040600 VRB03KT P6SM OVC015
     FM041600 15004KT P6SM OVC025
     FM041900 16007KT P6SM SKC
     FM042100 18009KT P6SM SKC=



000
FTUS46 KLOX 032340
TAFSBA
TAF
KSBA 032340Z 0400/0424 28011KT P6SM SKC
     FM040300 VRB03KT P6SM SKC
     FM040900 VRB03KT P6SM OVC025
     FM041700 17006KT P6SM SCT030
     FM042100 25009KT P6SM SKC=



000
FTUS46 KLOX 032340
TAFLGB
TAF
KLGB 032340Z 0400/0424 20010KT P6SM SKC
     FM040100 29009KT P6SM SKC
     FM040500 VRB03KT P6SM OVC020
     FM041900 17005KT P6SM SCT030
     FM042100 20009KT P6SM SKC
      AMD NOT SKED=



000
FTUS46 KLOX 032340
TAFSMX
TAF
KSMX 032340Z 0400/0424 31017KT P6SM SKC
     FM040300 30008KT P6SM SKC
     FM040600 VRB03KT P6SM OVC010
     FM041800 28005KT P6SM SCT015
     FM042000 30012KT P6SM SKC
     FM042200 30015G20KT P6SM SKC=



000
FTUS46 KLOX 032340
TAFVNY
TAF
KVNY 032340Z 0400/0424 18008KT P6SM SKC
     FM040300 14006KT P6SM SKC
     FM040700 VRB03KT P6SM BKN015
     FM041000 VRB03KT P6SM OVC020
     FM041900 15004KT P6SM SKC
     FM042100 17008KT P6SM SKC=



000
FTUS46 KLOX 032340
TAFWJF
TAF
KWJF 032340Z 0400/0424 23018G25KT P6SM SKC
     FM040300 24014KT P6SM SKC
     FM042000 22017G24KT P6SM SKC
     FM042200 22020G28KT P6SM SKC=



000
FTUS46 KLOX 032340
TAFLAX
TAF
KLAX 032340Z 0400/0506 25010KT P6SM SKC
     FM040600 26006KT P6SM BKN025
     FM040800 VRB03KT P6SM OVC020
     FM041700 25006KT P6SM BKN030
     FM042000 25012KT P6SM SCT035
     FM050300 25009KT P6SM BKN025=



000
FTUS46 KLOX 032340
TAFSBP
TAF
KSBP 032340Z 0400/0424 32016KT P6SM SKC
     FM040300 30008KT P6SM SKC
     FM040600 VRB03KT P6SM SKC
     FM040900 VRB03KT P6SM OVC012
     FM041200 VRB03KT P6SM OVC008
     FM041800 25004KT P6SM SKC
     FM042000 29012KT P6SM SKC
     FM042200 30017G23KT P6SM SKC=



000
FTUS46 KLOX 032340
TAFSMX
TAF
KSMX 032340Z 0400/0424 31017KT P6SM SKC
     FM040300 30008KT P6SM SKC
     FM040600 VRB03KT P6SM OVC010
     FM041800 28005KT P6SM SCT015
     FM042000 30012KT P6SM SKC
     FM042200 30015G20KT P6SM SKC=



000
FTUS46 KLOX 032340
TAFSBP
TAF
KSBP 032340Z 0400/0424 32016KT P6SM SKC
     FM040300 30008KT P6SM SKC
     FM040600 VRB03KT P6SM SKC
     FM040900 VRB03KT P6SM OVC012
     FM041200 VRB03KT P6SM OVC008
     FM041800 25004KT P6SM SKC
     FM042000 29012KT P6SM SKC
     FM042200 30017G23KT P6SM SKC=



000
FTUS46 KLOX 032340
TAFLAX
TAF
KLAX 032340Z 0400/0506 25010KT P6SM SKC
     FM040600 26006KT P6SM BKN025
     FM040800 VRB03KT P6SM OVC020
     FM041700 25006KT P6SM BKN030
     FM042000 25012KT P6SM SCT035
     FM050300 25009KT P6SM BKN025=



000
FTUS46 KLOX 032340
TAFPRB
TAF
KPRB 032340Z 0400/0424 22012KT P6SM SKC
     FM040500 30007KT P6SM SKC
     FM040900 VRB03KT P6SM SKC
     FM041400 VRB05KT P6SM BKN005
     FM041700 30005KT P6SM SKC
     FM042100 27011KT P6SM SKC
     FM042300 23015G20KT P6SM SKC=



000
FTUS46 KLOX 032340
TAFSBA
TAF
KSBA 032340Z 0400/0424 28011KT P6SM SKC
     FM040300 VRB03KT P6SM SKC
     FM040900 VRB03KT P6SM OVC025
     FM041700 17006KT P6SM SCT030
     FM042100 25009KT P6SM SKC=



000
FTUS46 KLOX 032340
TAFPMD
TAF
KPMD 032340Z 0400/0424 25017G23KT P6SM SKC
     FM040400 24015KT P6SM SKC
     FM041000 23007KT P6SM SKC
     FM041800 23011KT P6SM SKC
     FM042000 23015G20KT P6SM SKC
     FM042200 24018G25KT P6SM SKC=



000
FTUS46 KLOX 032340
TAFBUR
TAF
KBUR 032340Z 0400/0424 18008KT P6SM SKC
     FM040300 16005KT P6SM SKC
     FM040600 VRB03KT P6SM OVC015
     FM041600 15004KT P6SM OVC025
     FM041900 16007KT P6SM SKC
     FM042100 18009KT P6SM SKC=



000
FTUS46 KLOX 032340
TAFLGB
TAF
KLGB 032340Z 0400/0424 20010KT P6SM SKC
     FM040100 29009KT P6SM SKC
     FM040500 VRB03KT P6SM OVC020
     FM041900 17005KT P6SM SCT030
     FM042100 20009KT P6SM SKC
      AMD NOT SKED=



000
FTUS46 KLOX 032340
TAFWJF
TAF
KWJF 032340Z 0400/0424 23018G25KT P6SM SKC
     FM040300 24014KT P6SM SKC
     FM042000 22017G24KT P6SM SKC
     FM042200 22020G28KT P6SM SKC=



000
FTUS46 KLOX 032340
TAFVNY
TAF
KVNY 032340Z 0400/0424 18008KT P6SM SKC
     FM040300 14006KT P6SM SKC
     FM040700 VRB03KT P6SM BKN015
     FM041000 VRB03KT P6SM OVC020
     FM041900 15004KT P6SM SKC
     FM042100 17008KT P6SM SKC=



000
FTUS46 KLOX 032111 AAA
TAFSBP
TAF AMD
KSBP 032111Z 0321/0418 31012G22KT P6SM SKC
     FM040300 30008KT P6SM SKC
     FM040900 VRB05KT P6SM OVC012
     FM041200 VRB05KT P6SM OVC008=



000
FTUS46 KLOX 032100 AAB
TAFLAX
TAF AMD
KLAX 032100Z 0321/0424 26010KT P6SM SCT030
     FM040500 26008KT P6SM BKN025
     FM040800 VRB05KT P6SM OVC020
     FM041700 25006KT P6SM BKN030
     FM042000 25010KT P6SM SCT035=



000
FTUS46 KLOX 032003 AAA
TAFPRB
TAF AMD
KPRB 032003Z 0320/0418 31010KT P6SM SKC
     FM040900 VRB03KT P6SM SKC
     FM041400 VRB05KT P6SM BKN005=



000
FTUS46 KLOX 031956 AAA
TAFPMD
TAF AMD
KPMD 031956Z 0320/0418 24015G25KT P6SM SKC
     FM040400 24015KT P6SM SKC
     FM041000 23007KT P6SM SKC
     FM041500 VRB05KT P6SM SKC=



000
FTUS46 KLOX 031956 AAA
TAFSMX
TAF AMD
KSMX 031956Z 0320/0418 31012G22KT P6SM SKC
     FM040300 30008KT P6SM SKC
     FM040600 VRB03KT P6SM OVC010=



000
FTUS46 KLOX 031821 AAA
TAFLAX
TAF AMD
KLAX 031821Z 0318/0424 VRB05KT P6SM SCT025 BKN035
     FM031900 26010KT P6SM SCT035
     FM040500 26008KT P6SM BKN025
     FM040800 VRB05KT P6SM OVC020
     FM041700 25006KT P6SM BKN030
     FM042000 25010KT P6SM SCT035=



000
FTUS46 KLOX 031821 AAA
TAFLAX
TAF AMD
KLAX 031821Z 0318/0424 VRB05KT P6SM SCT025 BKN035
     FM031900 26010KT P6SM SCT035
     FM040500 26008KT P6SM BKN025
     FM040800 VRB05KT P6SM OVC020
     FM041700 25006KT P6SM BKN030
     FM042000 25010KT P6SM SCT035=



000
FTUS46 KLOX 031739
TAFSBP
TAF
KSBP 031739Z 0318/0418 VRB05KT P6SM SCT010
     FM032200 30012G22KT P6SM SKC
     FM040300 30008KT P6SM SKC
     FM040900 VRB05KT P6SM OVC012
     FM041200 VRB05KT P6SM OVC008=



000
FTUS46 KLOX 031739
TAFSBA
TAF
KSBA 031739Z 0318/0418 VRB05KT P6SM SCT035
     FM032000 25007KT P6SM SKC
     FM040300 VRB05KT P6SM SKC
     FM040800 VRB05KT P6SM OVC025
     FM041700 VRB05KT P6SM SCT030=



000
FTUS46 KLOX 031739
TAFSMX
TAF
KSMX 031739Z 0318/0418 VRB05KT P6SM SCT015
     FM031900 29007KT P6SM SKC
     FM032100 30012G22KT P6SM SKC
     FM040300 30008KT P6SM SKC
     FM040600 VRB03KT P6SM OVC010=



000
FTUS46 KLOX 031739
TAFPRB
TAF
KPRB 031739Z 0318/0418 VRB05KT P6SM SCT008
     FM032000 22015KT P6SM SKC
     FM040400 30010KT P6SM SKC
     FM040900 VRB03KT P6SM SKC
     FM041400 VRB05KT P6SM BKN005=



000
FTUS46 KLOX 031739
TAFSBA
TAF
KSBA 031739Z 0318/0418 VRB05KT P6SM SCT035
     FM032000 25007KT P6SM SKC
     FM040300 VRB05KT P6SM SKC
     FM040800 VRB05KT P6SM OVC025
     FM041700 VRB05KT P6SM SCT030=



000
FTUS46 KLOX 031739
TAFSBP
TAF
KSBP 031739Z 0318/0418 VRB05KT P6SM SCT010
     FM032200 30012G22KT P6SM SKC
     FM040300 30008KT P6SM SKC
     FM040900 VRB05KT P6SM OVC012
     FM041200 VRB05KT P6SM OVC008=



000
FTUS46 KLOX 031735
TAFWJF
TAF
KWJF 031735Z 0318/0418 24015KT P6SM SKC
     FM032100 24018G28KT P6SM SKC
     FM040400 24015KT P6SM SKC
     FM040900 24008KT P6SM SKC=



000
FTUS46 KLOX 031735
TAFLGB
TAF
KLGB 031735Z 0318/0418 VRB05KT P6SM OVC030
     FM031930 20006KT P6SM SCT035
     FM040300 18008KT P6SM BKN025
     FM040800 VRB05KT P6SM OVC020
     FM041700 25006KT P6SM BKN030
      AMD NOT SKED=



000
FTUS46 KLOX 031735
TAFLAX
TAF
KLAX 031735Z 0318/0424 15007KT P6SM SCT025 BKN030
     FM031900 26010KT P6SM SCT035
     FM040500 26008KT P6SM BKN025
     FM040800 VRB05KT P6SM OVC020
     FM041700 25006KT P6SM BKN030
     FM042000 25010KT P6SM SCT035=



000
FTUS46 KLOX 031735
TAFVNY
TAF
KVNY 031735Z 0318/0418 14007KT P6SM SCT020 BKN030
     FM031900 14008KT P6SM SCT030
     FM040300 VRB05KT P6SM SKC
     FM040700 VRB05KT P6SM BKN015=



000
FTUS46 KLOX 031735
TAFBUR
TAF
KBUR 031735Z 0318/0418 15008KT P6SM BKN020 OVC027
     FM031900 17008KT P6SM SCT030
     FM040300 VRB05KT P6SM SKC
     FM040600 VRB05KT P6SM BKN015=



000
FTUS46 KLOX 031735
TAFPMD
TAF
KPMD 031735Z 0318/0418 VRB05KT P6SM SCT250
     FM032100 24018G25KT P6SM SKC
     FM040400 24015KT P6SM SKC
     FM041000 23007KT P6SM SKC
     FM041500 VRB05KT P6SM SKC=



000
FTUS46 KLOX 031735
TAFPMD
TAF
KPMD 031735Z 0318/0418 VRB05KT P6SM SCT250
     FM032100 24018G25KT P6SM SKC
     FM040400 24015KT P6SM SKC
     FM041000 23007KT P6SM SKC
     FM041500 VRB05KT P6SM SKC=



000
FTUS46 KLOX 031735
TAFLGB
TAF
KLGB 031735Z 0318/0418 VRB05KT P6SM OVC030
     FM031930 20006KT P6SM SCT035
     FM040300 18008KT P6SM BKN025
     FM040800 VRB05KT P6SM OVC020
     FM041700 25006KT P6SM BKN030
      AMD NOT SKED=



000
FTUS46 KLOX 031735
TAFLAX
TAF
KLAX 031735Z 0318/0424 15007KT P6SM SCT025 BKN030
     FM031900 26010KT P6SM SCT035
     FM040500 26008KT P6SM BKN025
     FM040800 VRB05KT P6SM OVC020
     FM041700 25006KT P6SM BKN030
     FM042000 25010KT P6SM SCT035=



000
FTUS46 KLOX 031735
TAFVNY
TAF
KVNY 031735Z 0318/0418 14007KT P6SM SCT020 BKN030
     FM031900 14008KT P6SM SCT030
     FM040300 VRB05KT P6SM SKC
     FM040700 VRB05KT P6SM BKN015=



000
FTUS46 KLOX 031735
TAFBUR
TAF
KBUR 031735Z 0318/0418 15008KT P6SM BKN020 OVC027
     FM031900 17008KT P6SM SCT030
     FM040300 VRB05KT P6SM SKC
     FM040600 VRB05KT P6SM BKN015=



000
FTUS46 KLOX 031735
TAFWJF
TAF
KWJF 031735Z 0318/0418 24015KT P6SM SKC
     FM032100 24018G28KT P6SM SKC
     FM040400 24015KT P6SM SKC
     FM040900 24008KT P6SM SKC=



000
FTUS46 KLOX 031623 AAC
TAFSBP
TAF AMD
KSBP 031623Z 0316/0412 VRB05KT P6SM SCT010
     FM031800 30007KT P6SM SKC
     FM032200 30015G22KT P6SM SKC
     FM040300 30008KT P6SM SKC
     FM040800 VRB03KT P6SM OVC010=



000
FTUS46 KLOX 031623 AAC
TAFSBP
TAF AMD
KSBP 031623Z 0316/0412 VRB05KT P6SM SCT010
     FM031800 30007KT P6SM SKC
     FM032200 30015G22KT P6SM SKC
     FM040300 30008KT P6SM SKC
     FM040800 VRB03KT P6SM OVC010=



000
FTUS46 KLOX 031611 AAB
TAFPRB
TAF AMD
KPRB 031611Z 0316/0412 VRB05KT P6SM SCT008
     FM032000 22015KT P6SM SKC
     FM040400 30010KT P6SM SKC
     FM040900 VRB03KT P6SM SKC=



000
FTUS46 KLOX 031523 AAB
TAFSBP
TAF AMD
KSBP 031523Z 0315/0412 VRB03KT P6SM OVC010
     FM031800 30007KT P6SM SKC
     FM032200 30015G22KT P6SM SKC
     FM040300 30008KT P6SM SKC
     FM040800 VRB03KT P6SM OVC010=



000
FTUS46 KLOX 031504 AAB
TAFLAX
TAF AMD
KLAX 031504Z 0315/0418 VRB05KT P6SM OVC025
      TEMPO 0315/0317 5SM BR
     FM031700 25006KT P6SM OVC035
     FM031900 26012KT P6SM SKC
     FM040400 26008KT P6SM BKN020
     FM040900 VRB03KT P6SM OVC020
     FM041700 25006KT P6SM BKN030=



000
FTUS46 KLOX 031427 AAA
TAFBUR
TAF AMD
KBUR 031427Z 0314/0412 VRB05KT P6SM OVC018
     FM031600 VRB03KT P6SM OVC022
     FM031800 17008KT P6SM SKC
     FM040300 VRB03KT P6SM SKC
     FM040600 VRB03KT P6SM BKN015=



000
FTUS46 KLOX 031427 AAA
TAFBUR
TAF AMD
KBUR 031427Z 0314/0412 VRB05KT P6SM OVC018
     FM031600 VRB03KT P6SM OVC022
     FM031800 17008KT P6SM SKC
     FM040300 VRB03KT P6SM SKC
     FM040600 VRB03KT P6SM BKN015=



000
FTUS46 KLOX 031426 AAA
TAFLAX
TAF AMD
KLAX 031426Z 0314/0418 26006KT 5SM BR OVC025
     FM031600 25006KT P6SM OVC035
     FM031900 26012KT P6SM SKC
     FM040400 26008KT P6SM BKN020
     FM040900 VRB03KT P6SM OVC020
     FM041700 25006KT P6SM BKN030=



000
FTUS46 KLOX 031425 AAA
TAFPRB
TAF AMD
KPRB 031425Z 0314/0412 VRB03KT P6SM BKN004
     FM031800 VRB05KT P6SM SCT008
     FM032000 22015KT P6SM SKC
     FM040400 30010KT P6SM SKC
     FM040900 VRB03KT P6SM SKC=



000
FTUS46 KLOX 031319 AAA
TAFSBP
TAF AMD
KSBP 031319Z 0313/0412 VRB03KT P6SM OVC009
     FM031800 30007KT P6SM SKC
     FM032200 30015G22KT P6SM SKC
     FM040300 30008KT P6SM SKC
     FM040800 VRB03KT P6SM OVC010=



000
FTUS46 KLOX 031130
TAFSBA
TAF
KSBA 031130Z 0312/0412 VRB03KT P6SM OVC035
     FM032000 25007KT P6SM SKC
     FM040300 VRB03KT P6SM SKC
     FM040800 VRB03KT P6SM OVC025=



000
FTUS46 KLOX 031130
TAFPRB
TAF
KPRB 031130Z 0312/0412 VRB03KT P6SM SKC
     FM032000 22015KT P6SM SKC
     FM040400 30010KT P6SM SKC
     FM040900 VRB03KT P6SM SKC=



000
FTUS46 KLOX 031130
TAFLAX
TAF
KLAX 031130Z 0312/0418 26006KT P6SM OVC027
     FM031600 25006KT P6SM OVC035
     FM031900 26012KT P6SM SKC
     FM040400 26008KT P6SM BKN020
     FM040900 VRB03KT P6SM OVC020
     FM041700 25006KT P6SM BKN030=



000
FTUS46 KLOX 031130
TAFVNY
TAF
KVNY 031130Z 0312/0412 VRB03KT P6SM OVC022
     FM031800 14008KT P6SM SKC
     FM040300 VRB03KT P6SM SKC
     FM040700 VRB03KT P6SM BKN015=



000
FTUS46 KLOX 031130
TAFWJF
TAF
KWJF 031130Z 0312/0412 23009KT P6SM SCT250
     FM031800 24015KT P6SM SKC
     FM032100 24018G28KT P6SM SKC
     FM040400 24015KT P6SM SKC=



000
FTUS46 KLOX 031130
TAFSBP
TAF
KSBP 031130Z 0312/0412 VRB03KT P6SM OVC011
     FM031800 30007KT P6SM SKC
     FM032200 30015G22KT P6SM SKC
     FM040300 30008KT P6SM SKC
     FM040800 VRB03KT P6SM OVC010=



000
FTUS46 KLOX 031130
TAFBUR
TAF
KBUR 031130Z 0312/0412 VRB03KT P6SM OVC018
     FM031400 VRB03KT P6SM OVC022
     FM031800 17008KT P6SM SKC
     FM040300 VRB03KT P6SM SKC
     FM040600 VRB03KT P6SM BKN015=



000
FTUS46 KLOX 031130
TAFSMX
TAF
KSMX 031130Z 0312/0412 VRB03KT P6SM OVC010
     FM031900 29008KT P6SM SKC
     FM032100 30015G20KT P6SM SKC
     FM040300 30008KT P6SM SKC
     FM040600 VRB03KT P6SM OVC010=



000
FTUS46 KLOX 031130
TAFPMD
TAF
KPMD 031130Z 0312/0412 23006KT P6SM SCT250
     FM032100 24018G25KT P6SM SKC
     FM040400 24015KT P6SM SKC
     FM041000 23007KT P6SM SKC=



000
FTUS46 KLOX 031130
TAFLGB
TAF
KLGB 031130Z 0312/0412 VRB03KT P6SM OVC025
     FM031800 19009KT P6SM SKC
     FM040500 VRB03KT P6SM BKN025
      AMD NOT SKED=



000
FTUS46 KLOX 030932 AAA
TAFVNY
TAF AMD
KVNY 030932Z 0310/0406 VRB03KT P6SM OVC022
     FM031800 14008KT P6SM SKC
     FM040400 VRB03KT P6SM SKC=



000
FTUS46 KLOX 030931 AAA
TAFSBA
TAF AMD
KSBA 030931Z 0310/0406 VRB03KT P6SM OVC035
     FM032100 25007KT P6SM SKC
     FM040300 VRB03KT P6SM SKC=



000
FTUS46 KLOX 030931 AAA
TAFSMX
TAF AMD
KSMX 030931Z 0310/0406 VRB03KT P6SM BKN010
     FM031700 29006KT P6SM OVC015
     FM031900 29008KT P6SM SKC
     FM032100 30015G20KT P6SM SKC
     FM040300 30008KT P6SM SKC=



000
FTUS46 KLOX 030930 AAA
TAFSBP
TAF AMD
KSBP 030930Z 0310/0406 31007KT P6SM SKC
     FM031200 VRB03KT P6SM OVC010
     FM031900 30007KT P6SM SKC
     FM032200 30015G22KT P6SM SKC
     FM040300 30008KT P6SM SKC=



000
FTUS46 KLOX 030757 AAA
TAFLAX
TAF AMD
KLAX 030757Z 0308/0412 26006KT P6SM OVC022
     FM031500 25006KT P6SM OVC030
     FM032000 26012KT P6SM SKC
     FM040300 26008KT P6SM BKN015
     FM040900 VRB03KT P6SM OVC020=



000
FTUS46 KLOX 030534
TAFWJF
TAF
KWJF 030534Z 0306/0406 25018KT P6SM SCT250
     FM030900 23009KT P6SM SCT250
     FM031900 24015KT P6SM SKC
     FM032200 24018G28KT P6SM SKC
     FM040400 24015KT P6SM SKC=



000
FTUS46 KLOX 030534
TAFBUR
TAF
KBUR 030534Z 0306/0406 VRB03KT P6SM SCT250
     FM030800 VRB03KT P6SM OVC015
     FM031500 VRB03KT P6SM OVC022
     FM031800 17008KT P6SM SKC
     FM040400 VRB03KT P6SM SKC=



000
FTUS46 KLOX 030534
TAFSMX
TAF
KSMX 030534Z 0306/0406 VRB03KT P6SM BKN008
     FM030800 VRB03KT 4SM BR OVC005
     FM031400 VRB03KT 5SM BR OVC010
     FM031700 29006KT P6SM OVC015
     FM031900 29008KT P6SM SKC
     FM032100 30015G20KT P6SM SKC
     FM040300 30008KT P6SM SKC=



000
FTUS46 KLOX 030534
TAFVNY
TAF
KVNY 030534Z 0306/0406 VRB03KT P6SM SCT250
     FM030800 VRB03KT P6SM OVC015
     FM031500 VRB03KT P6SM OVC022
     FM031800 14008KT P6SM SKC
     FM040400 VRB03KT P6SM SKC=



000
FTUS46 KLOX 030534
TAFPRB
TAF
KPRB 030534Z 0306/0406 30008KT P6SM SKC
     FM031100 VRB03KT P6SM OVC010
     FM031700 VRB03KT P6SM SKC
     FM032000 22015KT P6SM SKC
     FM040400 30010KT P6SM SKC=



000
FTUS46 KLOX 030534
TAFLGB
TAF
KLGB 030534Z 0306/0406 VRB03KT P6SM OVC025
     FM031800 19009KT P6SM SCT030
     FM040400 VRB03KT P6SM BKN015
      AMD NOT SKED=



000
FTUS46 KLOX 030534
TAFSBP
TAF
KSBP 030534Z 0306/0406 31007KT P6SM SKC
     FM030900 VRB03KT P6SM OVC006
     FM031400 VRB03KT P6SM OVC012
     FM031900 30007KT P6SM SKC
     FM032200 30015G22KT P6SM SKC
     FM040300 30008KT P6SM SKC=



000
FTUS46 KLOX 030534
TAFLAX
TAF
KLAX 030534Z 0306/0412 26006KT P6SM SCT020
     FM030700 VRB03KT P6SM OVC015
     FM031500 25006KT P6SM OVC022
     FM032000 26012KT P6SM SKC
     FM040300 26008KT P6SM BKN015
     FM040900 VRB03KT P6SM OVC020=



000
FTUS46 KLOX 030534
TAFPMD
TAF
KPMD 030534Z 0306/0406 25015KT P6SM SCT250
     FM030900 23006KT P6SM SCT250
     FM031900 24010KT P6SM SKC
     FM032200 24018G25KT P6SM SKC
     FM040400 24015KT P6SM SKC=



000
FTUS46 KLOX 030534
TAFSBA
TAF
KSBA 030534Z 0306/0406 VRB03KT P6SM SCT250
     FM030900 VRB03KT P6SM OVC012
     FM031800 16006KT P6SM OVC015
     FM032100 25007KT P6SM SKC
     FM040300 VRB03KT P6SM SKC=



000
FTUS46 KLOX 030534
TAFSBP
TAF
KSBP 030534Z 0306/0406 31007KT P6SM SKC
     FM030900 VRB03KT P6SM OVC006
     FM031400 VRB03KT P6SM OVC012
     FM031900 30007KT P6SM SKC
     FM032200 30015G22KT P6SM SKC
     FM040300 30008KT P6SM SKC=



000
FTUS46 KLOX 030534
TAFSBA
TAF
KSBA 030534Z 0306/0406 VRB03KT P6SM SCT250
     FM030900 VRB03KT P6SM OVC012
     FM031800 16006KT P6SM OVC015
     FM032100 25007KT P6SM SKC
     FM040300 VRB03KT P6SM SKC=



000
FTUS46 KLOX 030534
TAFPRB
TAF
KPRB 030534Z 0306/0406 30008KT P6SM SKC
     FM031100 VRB03KT P6SM OVC010
     FM031700 VRB03KT P6SM SKC
     FM032000 22015KT P6SM SKC
     FM040400 30010KT P6SM SKC=



000
FTUS46 KLOX 030534
TAFSMX
TAF
KSMX 030534Z 0306/0406 VRB03KT P6SM BKN008
     FM030800 VRB03KT 4SM BR OVC005
     FM031400 VRB03KT 5SM BR OVC010
     FM031700 29006KT P6SM OVC015
     FM031900 29008KT P6SM SKC
     FM032100 30015G20KT P6SM SKC
     FM040300 30008KT P6SM SKC=



000
FTUS46 KLOX 030534
TAFPMD
TAF
KPMD 030534Z 0306/0406 25015KT P6SM SCT250
     FM030900 23006KT P6SM SCT250
     FM031900 24010KT P6SM SKC
     FM032200 24018G25KT P6SM SKC
     FM040400 24015KT P6SM SKC=



000
FTUS46 KLOX 030534
TAFLAX
TAF
KLAX 030534Z 0306/0412 26006KT P6SM SCT020
     FM030700 VRB03KT P6SM OVC015
     FM031500 25006KT P6SM OVC022
     FM032000 26012KT P6SM SKC
     FM040300 26008KT P6SM BKN015
     FM040900 VRB03KT P6SM OVC020=



000
FTUS46 KLOX 030534
TAFLGB
TAF
KLGB 030534Z 0306/0406 VRB03KT P6SM OVC025
     FM031800 19009KT P6SM SCT030
     FM040400 VRB03KT P6SM BKN015
      AMD NOT SKED=



000
FTUS46 KLOX 030534
TAFWJF
TAF
KWJF 030534Z 0306/0406 25018KT P6SM SCT250
     FM030900 23009KT P6SM SCT250
     FM031900 24015KT P6SM SKC
     FM032200 24018G28KT P6SM SKC
     FM040400 24015KT P6SM SKC=



000
FTUS46 KLOX 030534
TAFVNY
TAF
KVNY 030534Z 0306/0406 VRB03KT P6SM SCT250
     FM030800 VRB03KT P6SM OVC015
     FM031500 VRB03KT P6SM OVC022
     FM031800 14008KT P6SM SKC
     FM040400 VRB03KT P6SM SKC=



000
FTUS46 KLOX 030534
TAFBUR
TAF
KBUR 030534Z 0306/0406 VRB03KT P6SM SCT250
     FM030800 VRB03KT P6SM OVC015
     FM031500 VRB03KT P6SM OVC022
     FM031800 17008KT P6SM SKC
     FM040400 VRB03KT P6SM SKC=



000
FTUS46 KLOX 030310 AAB
TAFPMD
TAF AMD
KPMD 030310Z 0303/0324 25020G30KT P6SM SKC
     FM030500 24012KT P6SM SCT250
     FM030800 23006KT P6SM SCT250
     FM031800 24010KT P6SM SKC
     FM032100 24017G24KT P6SM SKC=



000
FTUS46 KLOX 030309 AAA
TAFLAX
TAF AMD
KLAX 030309Z 0303/0406 26007KT P6SM FEW020 SCT150
     FM030500 26006KT P6SM BKN020
     FM030900 VRB03KT P6SM OVC025
     FM031800 24008KT P6SM BKN030
     FM032100 25012KT P6SM SCT030
     FM040300 26008KT P6SM BKN020=



000
FTUS46 KLOX 030109 AAA
TAFPMD
TAF AMD
KPMD 030109Z 0301/0324 27016G22KT P6SM SKC
     FM030300 24012KT P6SM SCT250
     FM030800 23006KT P6SM SCT250
     FM031800 24010KT P6SM SKC
     FM032100 24017G24KT P6SM SKC=



000
FTUS46 KLOX 030109 AAA
TAFPMD
TAF AMD
KPMD 030109Z 0301/0324 27016G22KT P6SM SKC
     FM030300 24012KT P6SM SCT250
     FM030800 23006KT P6SM SCT250
     FM031800 24010KT P6SM SKC
     FM032100 24017G24KT P6SM SKC=



000
FTUS46 KLOX 022340
TAFSBA
TAF
KSBA 022340Z 0300/0324 26007KT P6SM SCT250
     FM030300 VRB03KT P6SM SCT250
     FM030900 VRB03KT P6SM OVC012
     FM031800 17005KT P6SM OVC015
     FM032100 25007KT P6SM SKC=



000
FTUS46 KLOX 022340
TAFPRB
TAF
KPRB 022340Z 0300/0324 23014KT P6SM SCT250
     FM030300 23012KT P6SM SCT250
     FM030500 29007KT P6SM SCT250
     FM031100 VRB03KT P6SM OVC010
     FM031700 VRB03KT P6SM SKC
     FM032000 23012KT P6SM SKC=



000
FTUS46 KLOX 022340
TAFSBP
TAF
KSBP 022340Z 0300/0324 32014KT P6SM SCT250
     FM030300 31009KT P6SM SCT250
     FM030600 VRB03KT P6SM SKC
     FM031000 VRB03KT P6SM OVC006
     FM031400 VRB03KT P6SM OVC012
     FM031900 24007KT P6SM SKC
     FM032100 29011KT P6SM SKC
     FM032300 30016G22KT P6SM SKC=



000
FTUS46 KLOX 022340
TAFLAX
TAF
KLAX 022340Z 0300/0406 26011KT P6SM SCT250
     FM030500 26006KT P6SM BKN020
     FM030900 VRB03KT P6SM OVC025
     FM031800 24008KT P6SM BKN030
     FM032100 25012KT P6SM SCT030
     FM040300 26008KT P6SM BKN020=



000
FTUS46 KLOX 022340
TAFSMX
TAF
KSMX 022340Z 0300/0324 32014KT P6SM SCT250
     FM030300 VRB03KT P6SM SCT250
     FM030800 VRB03KT 4SM BR OVC004
     FM031400 VRB03KT 5SM BR OVC010
     FM031700 29006KT P6SM OVC015
     FM031900 29008KT P6SM SKC
     FM032100 30015G20KT P6SM SKC=



000
FTUS46 KLOX 022340
TAFSBA
TAF
KSBA 022340Z 0300/0324 26007KT P6SM SCT250
     FM030300 VRB03KT P6SM SCT250
     FM030900 VRB03KT P6SM OVC012
     FM031800 17005KT P6SM OVC015
     FM032100 25007KT P6SM SKC=



000
FTUS46 KLOX 022340
TAFBUR
TAF
KBUR 022340Z 0300/0324 18008KT P6SM SCT250
     FM030300 16005KT P6SM SCT250
     FM030700 15005KT P6SM OVC020
     FM031800 15007KT P6SM SCT025
     FM032000 18009KT P6SM SKC=



000
FTUS46 KLOX 022340
TAFLGB
TAF
KLGB 022340Z 0300/0324 17009KT P6SM SCT250
     FM030100 29008KT P6SM SCT250
     FM030600 VRB03KT P6SM OVC020
     FM031800 18004KT P6SM SCT030
     FM032100 20007KT P6SM SKC
      AMD NOT SKED=



000
FTUS46 KLOX 022340
TAFPRB
TAF
KPRB 022340Z 0300/0324 23014KT P6SM SCT250
     FM030300 23012KT P6SM SCT250
     FM030500 29007KT P6SM SCT250
     FM031100 VRB03KT P6SM OVC010
     FM031700 VRB03KT P6SM SKC
     FM032000 23012KT P6SM SKC=



000
FTUS46 KLOX 022340
TAFLAX
TAF
KLAX 022340Z 0300/0406 26011KT P6SM SCT250
     FM030500 26006KT P6SM BKN020
     FM030900 VRB03KT P6SM OVC025
     FM031800 24008KT P6SM BKN030
     FM032100 25012KT P6SM SCT030
     FM040300 26008KT P6SM BKN020=



000
FTUS46 KLOX 022340
TAFSBP
TAF
KSBP 022340Z 0300/0324 32014KT P6SM SCT250
     FM030300 31009KT P6SM SCT250
     FM030600 VRB03KT P6SM SKC
     FM031000 VRB03KT P6SM OVC006
     FM031400 VRB03KT P6SM OVC012
     FM031900 24007KT P6SM SKC
     FM032100 29011KT P6SM SKC
     FM032300 30016G22KT P6SM SKC=



000
FTUS46 KLOX 022340
TAFSMX
TAF
KSMX 022340Z 0300/0324 32014KT P6SM SCT250
     FM030300 VRB03KT P6SM SCT250
     FM030800 VRB03KT 4SM BR OVC004
     FM031400 VRB03KT 5SM BR OVC010
     FM031700 29006KT P6SM OVC015
     FM031900 29008KT P6SM SKC
     FM032100 30015G20KT P6SM SKC=



000
FTUS46 KLOX 022340
TAFBUR
TAF
KBUR 022340Z 0300/0324 18008KT P6SM SCT250
     FM030300 16005KT P6SM SCT250
     FM030700 15005KT P6SM OVC020
     FM031800 15007KT P6SM SCT025
     FM032000 18009KT P6SM SKC=



000
FTUS46 KLOX 022340
TAFPMD
TAF
KPMD 022340Z 0300/0324 25020G28KT 5SM HZ BKN250
     FM030300 24012KT P6SM SCT250
     FM030800 23006KT P6SM SCT250
     FM031800 24010KT P6SM SKC
     FM032100 24017G24KT P6SM SKC=



000
FTUS46 KLOX 022340
TAFLGB
TAF
KLGB 022340Z 0300/0324 17009KT P6SM SCT250
     FM030100 29008KT P6SM SCT250
     FM030600 VRB03KT P6SM OVC020
     FM031800 18004KT P6SM SCT030
     FM032100 20007KT P6SM SKC
      AMD NOT SKED=



000
FTUS46 KLOX 022340
TAFVNY
TAF
KVNY 022340Z 0300/0324 14008KT P6SM SCT250
     FM030600 VRB03KT P6SM OVC020
     FM031800 VRB03KT P6SM SCT025
     FM032000 15008KT P6SM SKC=



000
FTUS46 KLOX 022340
TAFWJF
TAF
KWJF 022340Z 0300/0324 24023G30KT P6SM BKN250
     FM030300 24012KT P6SM SCT250
     FM031000 23006KT P6SM SCT250
     FM031800 22014G20KT P6SM SKC
     FM032100 22020G28KT P6SM SKC=



000
FTUS46 KLOX 022340
TAFVNY
TAF
KVNY 022340Z 0300/0324 14008KT P6SM SCT250
     FM030600 VRB03KT P6SM OVC020
     FM031800 VRB03KT P6SM SCT025
     FM032000 15008KT P6SM SKC=



000
FTUS46 KLOX 022340
TAFPMD
TAF
KPMD 022340Z 0300/0324 25020G28KT 5SM HZ BKN250
     FM030300 24012KT P6SM SCT250
     FM030800 23006KT P6SM SCT250
     FM031800 24010KT P6SM SKC
     FM032100 24017G24KT P6SM SKC=



000
FTUS46 KLOX 022340
TAFWJF
TAF
KWJF 022340Z 0300/0324 24023G30KT P6SM BKN250
     FM030300 24012KT P6SM SCT250
     FM031000 23006KT P6SM SCT250
     FM031800 22014G20KT P6SM SKC
     FM032100 22020G28KT P6SM SKC=



000
FTUS46 KLOX 022112 CCA
TAFLGB
TAF COR
KLGB 022112Z 0218/0318 19008KT P6SM SCT250
     FM030100 29007KT P6SM SCT250
     FM030500 VRB03KT P6SM BKN025
     FM030800 VRB03KT 6SM BR OVC019
      AMD NOT SKED=



000
FTUS46 KLOX 022035 AAA
TAFLAX
TAF AMD
KLAX 022035Z 0221/0324 26012KT P6SM FEW035 SCT250
     FM030400 26006KT P6SM BKN025
     FM030900 VRB03KT P6SM OVC018
     FM031700 VRB03KT P6SM BKN027
     FM032000 25010KT P6SM SCT030=



000
FTUS46 KLOX 022035 AAA
TAFLAX
TAF AMD
KLAX 022035Z 0221/0324 26012KT P6SM FEW035 SCT250
     FM030400 26006KT P6SM BKN025
     FM030900 VRB03KT P6SM OVC018
     FM031700 VRB03KT P6SM BKN027
     FM032000 25010KT P6SM SCT030=



000
FTUS46 KLOX 021739
TAFBUR
TAF
KBUR 021739Z 0218/0318 VRB03KT P6SM BKN023
     FM021900 17008KT P6SM SCT250
     FM030700 VRB03KT P6SM BKN019
     FM031200 VRB03KT 6SM HZ OVC013=



000
FTUS46 KLOX 021739
TAFVNY
TAF
KVNY 021739Z 0218/0318 VRB03KT P6SM BKN022
     FM021900 14008KT P6SM SCT250
     FM030500 VRB03KT P6SM BKN019
     FM031200 VRB03KT 6SM HZ OVC013=



000
FTUS46 KLOX 021739
TAFSMX
TAF
KSMX 021739Z 0218/0318 29006KT P6SM SCT030 SCT250
      TEMPO 0218/0220 BKN035
     FM022000 29010KT P6SM SCT035 BKN250
     FM030300 VRB03KT P6SM BKN007
     FM030800 VRB03KT 5SM BR OVC004=



000
FTUS46 KLOX 021739
TAFLAX
TAF
KLAX 021739Z 0218/0324 26007KT P6SM SCT029 OVC035
     FM022000 26012KT P6SM FEW035 SCT250
     FM030400 26006KT P6SM BKN025
     FM030900 VRB03KT P6SM OVC018
     FM031700 VRB03KT P6SM BKN027
     FM032000 25010KT P6SM SCT030=



000
FTUS46 KLOX 021739
TAFSBA
TAF
KSBA 021739Z 0218/0318 VRB03KT P6SM SCT020 BKN035
     FM022100 24008KT P6SM SCT035 SCT250
     FM030300 VRB03KT P6SM SCT035
     FM030900 VRB03KT P6SM OVC012
     FM031300 VRB03KT 6SM BR OVC010=



000
FTUS46 KLOX 021739
TAFPRB
TAF
KPRB 021739Z 0218/0318 00000KT P6SM SCT250
     FM021900 23008KT P6SM SCT250
     FM022000 23017G25KT P6SM SCT250
     FM030300 23008KT P6SM SCT250
     FM030900 VRB03KT P6SM OVC010=



000
FTUS46 KLOX 021739
TAFLGB
TAF
KLGB 021739Z 0218/0318 VRB03KT P6SM BKN035
     FM022000 19008KT P6SM SCT250
     FM030100 29007KT P6SM SCT250
     FM030500 VRB03KT P6SM BKN025
     FM030800 VRB03KT 6SM BR OVC019=



000
FTUS46 KLOX 021739
TAFSBP
TAF
KSBP 021739Z 0218/0318 16003KT P6SM BKN035
     FM021900 VRB03KT P6SM SCT250
     FM022100 29010KT P6SM SCT250
     FM030400 VRB03KT P6SM BKN007=



000
FTUS46 KLOX 021739
TAFWJF
TAF
KWJF 021739Z 0218/0318 23012KT P6SM SCT200
     FM022100 23018G25KT P6SM SCT250
     FM030300 24012KT P6SM SCT200
     FM031100 23006KT P6SM SCT250=



000
FTUS46 KLOX 021739
TAFPMD
TAF
KPMD 021739Z 0218/0318 23008KT P6SM SCT200
     FM022100 23018G25KT P6SM SCT250
     FM030300 24012KT P6SM SCT250
     FM031100 23006KT P6SM SCT250=



000
FTUS46 KLOX 021655 AAC
TAFPRB
TAF AMD
KPRB 021655Z 0217/0312 00000KT P6SM SCT250
     FM021800 23008KT P6SM SCT250
     FM022000 23017G25KT P6SM SCT250
     FM030300 23008KT P6SM SCT250
     FM030900 VRB03KT P6SM BKN010=



000
FTUS46 KLOX 021655 AAC
TAFSMX
TAF AMD
KSMX 021655Z 0217/0312 VRB03KT P6SM SCT020
     FM021900 29006KT P6SM BKN035 BKN250
     FM022000 29010KT P6SM SCT035 BKN250
     FM030300 VRB03KT P6SM BKN007=



000
FTUS46 KLOX 021611 AAB
TAFSMX
TAF AMD
KSMX 021611Z 0216/0312 VRB03KT P6SM BKN019
     FM021700 VRB03KT P6SM BKN025 BKN250
     FM021900 29006KT P6SM BKN035 BKN250
     FM022000 29010KT P6SM SCT035 BKN250
     FM030300 VRB03KT P6SM BKN007=



000
FTUS46 KLOX 021609 AAB
TAFPRB
TAF AMD
KPRB 021609Z 0216/0312 VRB03KT P6SM BKN005
     FM021800 23008KT P6SM SCT250
     FM022000 23017G25KT P6SM SCT250
     FM030300 23008KT P6SM SCT250
     FM030900 VRB03KT P6SM BKN010=



000
FTUS46 KLOX 021609 AAB
TAFPRB
TAF AMD
KPRB 021609Z 0216/0312 VRB03KT P6SM BKN005
     FM021800 23008KT P6SM SCT250
     FM022000 23017G25KT P6SM SCT250
     FM030300 23008KT P6SM SCT250
     FM030900 VRB03KT P6SM BKN010=



000
FTUS46 KLOX 021609 AAB
TAFSBP
TAF AMD
KSBP 021609Z 0216/0312 16003KT P6SM BKN035
     FM021800 VRB03KT P6SM SCT250
     FM022100 29009KT P6SM SCT250
     FM030400 VRB03KT P6SM BKN007=



000
FTUS46 KLOX 021441 AAA
TAFLAX
TAF AMD
KLAX 021441Z 0215/0318 VRB03KT P6SM BKN029 OVC035
     FM021600 26006KT P6SM BKN035
     FM022000 26012KT P6SM FEW035
     FM030400 26008KT P6SM BKN025
     FM030900 VRB03KT P6SM OVC025
     FM031700 VRB03KT P6SM BKN030=



000
FTUS46 KLOX 021441 AAA
TAFLAX
TAF AMD
KLAX 021441Z 0215/0318 VRB03KT P6SM BKN029 OVC035
     FM021600 26006KT P6SM BKN035
     FM022000 26012KT P6SM FEW035
     FM030400 26008KT P6SM BKN025
     FM030900 VRB03KT P6SM OVC025
     FM031700 VRB03KT P6SM BKN030=



000
FTUS46 KLOX 021419 AAA
TAFSBP
TAF AMD
KSBP 021419Z 0214/0312 16003KT P6SM SCT005 BKN026
     FM021700 VRB03KT P6SM SCT250
     FM022100 29009KT P6SM SCT250
     FM030400 VRB03KT P6SM BKN007=



000
FTUS46 KLOX 021419 AAA
TAFSBP
TAF AMD
KSBP 021419Z 0214/0312 16003KT P6SM SCT005 BKN026
     FM021700 VRB03KT P6SM SCT250
     FM022100 29009KT P6SM SCT250
     FM030400 VRB03KT P6SM BKN007=



000
FTUS46 KLOX 021324 AAA
TAFSBA
TAF AMD
KSBA 021324Z 0213/0312 VRB03KT P6SM OVC035
     FM022100 24008KT P6SM SCT250
     FM030300 VRB03KT P6SM BKN015=



000
FTUS46 KLOX 021324 AAA
TAFSMX
TAF AMD
KSMX 021324Z 0213/0312 VRB03KT P6SM BKN035
     FM021700 VRB03KT P6SM BKN200
     FM022000 29010KT P6SM BKN200
     FM030300 VRB03KT P6SM BKN007=



000
FTUS46 KLOX 021324 AAA
TAFPRB
TAF AMD
KPRB 021324Z 0213/0312 30008KT P6SM BKN005
     FM021600 VRB03KT P6SM BKN200
     FM021800 23008KT P6SM SCT250
     FM022000 23017G25KT P6SM SCT250
     FM030300 23008KT P6SM SCT250
     FM030900 VRB03KT P6SM BKN010=



000
FTUS46 KLOX 021120
TAFPMD
TAF
KPMD 021120Z 0212/0312 VRB06KT P6SM BKN200
     FM021700 23008KT P6SM BKN200
     FM022100 23018G25KT P6SM SCT200
     FM030300 24012KT P6SM SCT200=



000
FTUS46 KLOX 021120
TAFLAX
TAF
KLAX 021120Z 0212/0318 VRB03KT P6SM OVC025
     FM021600 26006KT P6SM OVC035
     FM022000 26012KT P6SM FEW035
     FM030400 26008KT P6SM BKN025
     FM030900 VRB03KT P6SM OVC025
     FM031700 VRB03KT P6SM BKN030=



000
FTUS46 KLOX 021120
TAFVNY
TAF
KVNY 021120Z 0212/0312 VRB03KT P6SM OVC022
     FM021900 14008KT P6SM SCT250
     FM030500 VRB03KT P6SM BKN020=



000
FTUS46 KLOX 021120
TAFSBA
TAF
KSBA 021120Z 0212/0312 VRB03KT P6SM OVC025
     FM022100 24008KT P6SM SCT250
     FM030300 VRB03KT P6SM BKN015=



000
FTUS46 KLOX 021120
TAFLGB
TAF
KLGB 021120Z 0212/0312 VRB03KT P6SM OVC025
     FM022000 19008KT P6SM SCT250
     FM030500 VRB03KT P6SM BKN025=



000
FTUS46 KLOX 021120
TAFWJF
TAF
KWJF 021120Z 0212/0312 28006KT P6SM BKN200
     FM021700 23012KT P6SM BKN200
     FM022100 23018G25KT P6SM SCT200
     FM030300 24012KT P6SM SCT200=



000
FTUS46 KLOX 021120
TAFBUR
TAF
KBUR 021120Z 0212/0312 VRB03KT P6SM OVC021
     FM021900 17008KT P6SM SCT250
     FM030500 VRB03KT P6SM BKN020=



000
FTUS46 KLOX 021120
TAFBUR
TAF
KBUR 021120Z 0212/0312 VRB03KT P6SM OVC021
     FM021900 17008KT P6SM SCT250
     FM030500 VRB03KT P6SM BKN020=



000
FTUS46 KLOX 021120
TAFSBP
TAF
KSBP 021120Z 0212/0312 VRB03KT P6SM SKC
     FM021300 VRB03KT P6SM BKN008
     FM021700 VRB03KT P6SM SCT250
     FM022100 29009KT P6SM SCT250
     FM030400 VRB03KT P6SM BKN007=



000
FTUS46 KLOX 021120
TAFLGB
TAF
KLGB 021120Z 0212/0312 VRB03KT P6SM OVC025
     FM022000 19008KT P6SM SCT250
     FM030500 VRB03KT P6SM BKN025=



000
FTUS46 KLOX 021120
TAFVNY
TAF
KVNY 021120Z 0212/0312 VRB03KT P6SM OVC022
     FM021900 14008KT P6SM SCT250
     FM030500 VRB03KT P6SM BKN020=



000
FTUS46 KLOX 021120
TAFSBA
TAF
KSBA 021120Z 0212/0312 VRB03KT P6SM OVC025
     FM022100 24008KT P6SM SCT250
     FM030300 VRB03KT P6SM BKN015=



000
FTUS46 KLOX 021120
TAFSMX
TAF
KSMX 021120Z 0212/0312 VRB03KT P6SM SKC
     FM021300 VRB03KT P6SM BKN008
     FM021700 VRB03KT P6SM BKN200
     FM022000 29010KT P6SM BKN200
     FM030300 VRB03KT P6SM BKN007=



000
FTUS46 KLOX 021120
TAFPMD
TAF
KPMD 021120Z 0212/0312 VRB06KT P6SM BKN200
     FM021700 23008KT P6SM BKN200
     FM022100 23018G25KT P6SM SCT200
     FM030300 24012KT P6SM SCT200=



000
FTUS46 KLOX 021120
TAFWJF
TAF
KWJF 021120Z 0212/0312 28006KT P6SM BKN200
     FM021700 23012KT P6SM BKN200
     FM022100 23018G25KT P6SM SCT200
     FM030300 24012KT P6SM SCT200=



000
FTUS46 KLOX 021120
TAFLAX
TAF
KLAX 021120Z 0212/0318 VRB03KT P6SM OVC025
     FM021600 26006KT P6SM OVC035
     FM022000 26012KT P6SM FEW035
     FM030400 26008KT P6SM BKN025
     FM030900 VRB03KT P6SM OVC025
     FM031700 VRB03KT P6SM BKN030=



000
FTUS46 KLOX 021120
TAFPRB
TAF
KPRB 021120Z 0212/0312 30008KT P6SM BKN250
     FM021800 23008KT P6SM SCT250
     FM022000 23017G25KT P6SM SCT250
     FM030300 23008KT P6SM SCT250
     FM030900 VRB03KT P6SM BKN010=



000
FTUS46 KLOX 021120
TAFSBP
TAF
KSBP 021120Z 0212/0312 VRB03KT P6SM SKC
     FM021300 VRB03KT P6SM BKN008
     FM021700 VRB03KT P6SM SCT250
     FM022100 29009KT P6SM SCT250
     FM030400 VRB03KT P6SM BKN007=



000
FTUS46 KLOX 021120
TAFSMX
TAF
KSMX 021120Z 0212/0312 VRB03KT P6SM SKC
     FM021300 VRB03KT P6SM BKN008
     FM021700 VRB03KT P6SM BKN200
     FM022000 29010KT P6SM BKN200
     FM030300 VRB03KT P6SM BKN007=



000
FTUS46 KLOX 021120
TAFPRB
TAF
KPRB 021120Z 0212/0312 30008KT P6SM BKN250
     FM021800 23008KT P6SM SCT250
     FM022000 23017G25KT P6SM SCT250
     FM030300 23008KT P6SM SCT250
     FM030900 VRB03KT P6SM BKN010=



000
FTUS46 KLOX 020904 AAA
TAFSBA
TAF AMD
KSBA 020904Z 0209/0306 VRB03KT P6SM BKN030 BKN250
     FM022100 24008KT P6SM SCT250
     FM030300 VRB03KT P6SM BKN010=



000
FTUS46 KLOX 020904 AAA
TAFBUR
TAF AMD
KBUR 020904Z 0209/0306 VRB03KT P6SM OVC021
     FM021700 17008KT P6SM SCT250
     FM030500 VRB03KT P6SM SCT250=



000
FTUS46 KLOX 020904 AAA
TAFSBA
TAF AMD
KSBA 020904Z 0209/0306 VRB03KT P6SM BKN030 BKN250
     FM022100 24008KT P6SM SCT250
     FM030300 VRB03KT P6SM BKN010=



000
FTUS46 KLOX 020904 AAA
TAFBUR
TAF AMD
KBUR 020904Z 0209/0306 VRB03KT P6SM OVC021
     FM021700 17008KT P6SM SCT250
     FM030500 VRB03KT P6SM SCT250=



000
FTUS46 KLOX 020900 AAB
TAFLAX
TAF AMD
KLAX 020900Z 0209/0312 VRB03KT P6SM BKN019 BKN025
     FM021600 26006KT P6SM OVC030
     FM022000 26012KT P6SM FEW030
     FM030400 26008KT P6SM BKN015
     FM030900 VRB03KT P6SM OVC022=



000
FTUS46 KLOX 020733 AAA
TAFVNY
TAF AMD
KVNY 020733Z 0208/0306 VRB03KT P6SM OVC022
     FM021700 17008KT P6SM SCT250
     FM030500 VRB03KT P6SM SCT250=



000
FTUS46 KLOX 020733 AAA
TAFVNY
TAF AMD
KVNY 020733Z 0208/0306 VRB03KT P6SM OVC022
     FM021700 17008KT P6SM SCT250
     FM030500 VRB03KT P6SM SCT250=



000
FTUS46 KLOX 020637 AAA
TAFLAX
TAF AMD
KLAX 020637Z 0207/0312 VRB03KT P6SM BKN022
     FM021600 26006KT P6SM OVC030
     FM022000 26012KT P6SM FEW030
     FM030400 26008KT P6SM BKN015
     FM030900 VRB03KT P6SM OVC022=



000
FTUS46 KLOX 020637 AAA
TAFLAX
TAF AMD
KLAX 020637Z 0207/0312 VRB03KT P6SM BKN022
     FM021600 26006KT P6SM OVC030
     FM022000 26012KT P6SM FEW030
     FM030400 26008KT P6SM BKN015
     FM030900 VRB03KT P6SM OVC022=



000
FTUS46 KLOX 020548
TAFSBP
TAF
KSBP 020548Z 0206/0306 32006KT P6SM BKN200
     FM021100 VRB03KT P6SM OVC007
     FM021700 VRB03KT P6SM SCT250
     FM022100 29009KT P6SM SCT250
     FM030400 VRB03KT P6SM BKN010=



000
FTUS46 KLOX 020548
TAFPRB
TAF
KPRB 020548Z 0206/0306 20007KT P6SM SCT250
     FM020800 30008KT P6SM BKN250
     FM021800 23008KT P6SM SCT250
     FM022000 23017G25KT P6SM SCT250
     FM030300 23008KT P6SM SCT250=



000
FTUS46 KLOX 020548
TAFBUR
TAF
KBUR 020548Z 0206/0306 VRB03KT P6SM SCT018
     FM020800 VRB03KT P6SM BKN018
     FM021700 17008KT P6SM SCT250
     FM030500 VRB03KT P6SM SCT250=



000
FTUS46 KLOX 020548
TAFSBA
TAF
KSBA 020548Z 0206/0306 VRB03KT P6SM BKN250
     FM021100 VRB03KT P6SM OVC015
     FM021800 16007KT P6SM OVC020
     FM022100 24008KT P6SM SCT250
     FM030300 VRB03KT P6SM BKN010=



000
FTUS46 KLOX 020548
TAFLAX
TAF
KLAX 020548Z 0206/0312 26006KT P6SM BKN200
     FM020900 VRB03KT P6SM OVC015
     FM021600 26006KT P6SM OVC022
     FM022000 26012KT P6SM FEW030
     FM030400 26008KT P6SM BKN015
     FM030900 VRB03KT P6SM OVC022=



000
FTUS46 KLOX 020548
TAFSMX
TAF
KSMX 020548Z 0206/0306 VRB03KT P6SM BKN200
     FM021100 VRB03KT P6SM OVC007
     FM021800 29010KT P6SM BKN200
     FM030300 VRB03KT P6SM BKN010=



000
FTUS46 KLOX 020548
TAFLGB
TAF
KLGB 020548Z 0206/0306 VRB03KT P6SM BKN022
     FM022100 19008KT P6SM SCT250
     FM030500 VRB03KT P6SM BKN020=



000
FTUS46 KLOX 020548
TAFWJF
TAF
KWJF 020548Z 0206/0306 25008KT P6SM BKN200
     FM022100 23018G25KT P6SM SCT250
     FM030300 24012KT P6SM SCT250=



000
FTUS46 KLOX 020548
TAFVNY
TAF
KVNY 020548Z 0206/0306 VRB03KT P6SM SCT018
     FM020800 VRB03KT P6SM BKN018
     FM021700 17008KT P6SM SCT250
     FM030500 VRB03KT P6SM SCT250=



000
FTUS46 KLOX 020548
TAFPMD
TAF
KPMD 020548Z 0206/0306 25008KT P6SM BKN200
     FM022100 23018G25KT P6SM SCT250
     FM030300 24012KT P6SM SCT250=



000
FTUS46 KLOX 020341 AAA
TAFSMX
TAF AMD
KSMX 020341Z 0204/0224 30005KT P6SM BKN200
     FM020500 VRB03KT P6SM OVC010
     FM020700 VRB03KT P6SM OVC007
     FM021600 VRB05KT P6SM OVC012
     FM021800 27005KT P6SM OVC015
     FM022100 30011KT P6SM SCT250=



000
FTUS46 KLOX 020341 AAA
TAFSMX
TAF AMD
KSMX 020341Z 0204/0224 30005KT P6SM BKN200
     FM020500 VRB03KT P6SM OVC010
     FM020700 VRB03KT P6SM OVC007
     FM021600 VRB05KT P6SM OVC012
     FM021800 27005KT P6SM OVC015
     FM022100 30011KT P6SM SCT250=



000
FTUS46 KLOX 020254 AAA
TAFLAX
TAF AMD
KLAX 020254Z 0203/0306 26009KT P6SM FEW020 SCT150 SCT250
     FM020800 23006KT P6SM OVC015
     FM021600 12005KT P6SM OVC022
     FM022000 25011KT P6SM BKN035
     FM030300 26008KT P6SM BKN020=



000
FTUS46 KLOX 020254 AAA
TAFLAX
TAF AMD
KLAX 020254Z 0203/0306 26009KT P6SM FEW020 SCT150 SCT250
     FM020800 23006KT P6SM OVC015
     FM021600 12005KT P6SM OVC022
     FM022000 25011KT P6SM BKN035
     FM030300 26008KT P6SM BKN020=



000
FTUS46 KLOX 020011 CCA
TAFBUR
TAF COR
KBUR 020011Z 0200/0224 19009KT P6SM BKN250
     FM020300 16006KT P6SM BKN250
     FM020600 14005KT P6SM OVC015
     FM021700 17005KT P6SM SCT025
     FM022000 18007KT P6SM SCT250=



000
FTUS46 KLOX 012340
TAFSBA
TAF
KSBA 012340Z 0200/0224 26010KT P6SM BKN250
     FM020300 VRB03KT P6SM BKN250
     FM020900 VRB03KT P6SM OVC015
     FM021800 21005KT P6SM OVC020
     FM022100 24008KT P6SM SCT250=



000
FTUS46 KLOX 012340
TAFSBP
TAF
KSBP 012340Z 0200/0224 21011KT P6SM BKN250
     FM020600 VRB05KT P6SM OVC010
     FM021100 VRB05KT P6SM OVC007
     FM021700 25005KT P6SM OVC012
     FM022100 27009KT P6SM SCT250=



000
FTUS46 KLOX 012340
TAFLGB
TAF
KLGB 012340Z 0200/0224 17008KT P6SM BKN250
     FM020100 29008KT P6SM BKN250
     FM020500 VRB03KT P6SM BKN015
     FM020900 VRB03KT P6SM OVC020
     FM021700 19005KT P6SM BKN025
     FM022100 19008KT P6SM SCT250=



000
FTUS46 KLOX 012340
TAFVNY
TAF
KVNY 012340Z 0200/0224 18010KT P6SM BKN250
     FM020300 13006KT P6SM BKN250
     FM020700 VRB03KT P6SM OVC015
     FM021200 VRB03KT P6SM OVC025
     FM021800 17004KT P6SM SCT030
     FM022000 15008KT P6SM SCT250=



000
FTUS46 KLOX 012340
TAFPRB
TAF
KPRB 012340Z 0200/0224 20015KT P6SM BKN250
     FM020400 30012KT P6SM SCT250
     FM021000 VRB03KT 5SM BR OVC005
     FM021800 27005KT P6SM SCT250
     FM022000 23015G20KT P6SM SCT250=



000
FTUS46 KLOX 012340
TAFWJF
TAF
KWJF 012340Z 0200/0224 22017G24KT P6SM BKN250
     FM020300 25015KT P6SM BKN250
     FM020500 24011KT P6SM BKN250
     FM021900 22014KT P6SM SCT250
     FM022100 22018G25KT P6SM FEW250=



000
FTUS46 KLOX 012340
TAFBUR
TAF
KBUR 012340Z 0200/0224 19009KT P6SM BKN250
     FM020300 16006KT P6SM BKN250
     FM020600 14005KT P6SM OVC015
     FM021500 17005KT P6SM SCT025
     FM022000 18007KT P6SM SCT250=



000
FTUS46 KLOX 012340
TAFLAX
TAF
KLAX 012340Z 0200/0306 25012KT P6SM FEW020 BKN250
     FM020300 25006KT P6SM SCT020 BKN250
     FM020800 23006KT P6SM OVC015
     FM021600 12005KT P6SM OVC022
     FM022000 25011KT P6SM BKN035
     FM030300 26008KT P6SM BKN020=



000
FTUS46 KLOX 012340
TAFSMX
TAF
KSMX 012340Z 0200/0224 32011KT P6SM BKN250
     FM020300 30006KT P6SM OVC010
     FM020500 VRB03KT P6SM OVC007
     FM021600 VRB05KT P6SM OVC012
     FM021800 27005KT P6SM OVC015
     FM022100 30011KT P6SM SCT250=



000
FTUS46 KLOX 012340
TAFPMD
TAF
KPMD 012340Z 0200/0224 24015G20KT P6SM BKN250
     FM020300 24011KT P6SM BKN250
     FM021000 21007KT P6SM SCT250
     FM021800 23010KT P6SM SCT250
     FM022000 24013KT P6SM SCT250
     FM022200 23016G22KT P6SM SCT250=



000
FTUS46 KLOX 012114 AAA
TAFPMD
TAF AMD
KPMD 012114Z 0121/0218 21012KT P6SM SKC
     FM012200 24015G25KT P6SM SKC
     FM020300 24012KT P6SM SKC
     FM021000 21007KT P6SM SKC
     FM021400 VRB05KT P6SM SKC=



000
FTUS46 KLOX 012114 AAA
TAFPMD
TAF AMD
KPMD 012114Z 0121/0218 21012KT P6SM SKC
     FM012200 24015G25KT P6SM SKC
     FM020300 24012KT P6SM SKC
     FM021000 21007KT P6SM SKC
     FM021400 VRB05KT P6SM SKC=



    US Dept of Commerce
    National Oceanic and Atmospheric Administration
    National Weather Service
    1325 East West Highway
    Silver Spring, MD 20910
    Page Author: NWS Internet Services Team
Disclaimer
Information Quality
Credits
Glossary
Privacy Policy
Freedom of Information Act (FOIA)
About Us
Career Opportunities